Time;durP1;ratioP1;P1;durP2;ratioP2;P2;SDS_P1;SDS_P2;PMS_P1;PMS_P2;Temp;Humidity;BMP_temperature;BMP_pressure;BME280_temperature;BME280_humidity;BME280_pressure;Samples;Min_cycle;Max_cycle;Signal;HPM_P1;HPM_P2
2023/03/06 00:00:39;;;;;;;5.55;1.70;;;;;;;11.97;100.00;100940.00;2096186;28;20118;-78
2023/03/06 00:02:00;;;;;;;3.13;1.23;;;;;;;11.97;100.00;100938.25;2081833;28;20045;-78
2023/03/06 00:03:26;;;;;;;5.78;2.17;;;;;;;11.99;100.00;100935.63;2083084;28;20140;-78
2023/03/06 00:04:47;;;;;;;3.97;1.50;;;;;;;11.98;100.00;100940.03;2083612;28;20497;-78
2023/03/06 00:06:09;;;;;;;3.72;1.27;;;;;;;11.97;100.00;100937.34;2082433;28;20808;-78
2023/03/06 00:07:31;;;;;;;4.10;1.33;;;;;;;11.97;100.00;100937.34;2091118;28;20076;-78
2023/03/06 00:08:53;;;;;;;5.13;1.38;;;;;;;11.97;100.00;100940.00;2085470;28;20554;-77
2023/03/06 00:10:17;;;;;;;3.17;1.02;;;;;;;11.97;100.00;100943.53;2091236;28;20045;-77
2023/03/06 00:11:39;;;;;;;4.82;1.48;;;;;;;11.96;100.00;100947.03;2085861;28;20063;-77
2023/03/06 00:13:06;;;;;;;6.00;1.65;;;;;;;11.98;100.00;100941.78;2085000;28;20100;-78
2023/03/06 00:14:28;;;;;;;4.50;1.20;;;;;;;11.98;100.00;100940.03;2086222;28;20045;-79
2023/03/06 00:15:51;;;;;;;5.07;1.35;;;;;;;11.97;100.00;100942.63;2085655;28;20045;-78
2023/03/06 00:17:12;;;;;;;2.90;1.27;;;;;;;11.93;100.00;100944.38;2077324;28;20375;-78
2023/03/06 00:18:34;;;;;;;3.92;1.42;;;;;;;11.92;100.00;100947.00;2074732;28;20060;-78
2023/03/06 00:19:56;;;;;;;5.32;1.40;;;;;;;11.91;100.00;100938.16;2082803;28;20041;-78
2023/03/06 00:21:18;;;;;;;7.05;1.88;;;;;;;11.92;100.00;100939.06;2085408;28;20088;-78
2023/03/06 00:22:41;;;;;;;4.97;1.90;;;;;;;11.90;100.00;100939.03;2093740;28;20056;-78
2023/03/06 00:24:03;;;;;;;6.25;1.17;;;;;;;11.85;100.00;100932.78;2088114;28;20041;-78
2023/03/06 00:25:26;;;;;;;5.82;1.42;;;;;;;11.82;100.00;100935.38;2093659;28;20057;-78
2023/03/06 00:26:47;;;;;;;6.35;1.75;;;;;;;11.76;100.00;100931.78;2088074;28;20049;-77
2023/03/06 00:28:13;;;;;;;4.72;1.35;;;;;;;11.69;100.00;100930.75;2085129;28;20045;-77
2023/03/06 00:29:36;;;;;;;4.20;1.60;;;;;;;11.64;100.00;100936.88;2077554;28;20041;-78
2023/03/06 00:30:59;;;;;;;5.28;1.38;;;;;;;11.61;100.00;100935.09;2083156;28;20045;-78
2023/03/06 00:32:20;;;;;;;3.90;1.52;;;;;;;11.59;100.00;100934.16;2085480;28;20419;-78
2023/03/06 00:33:42;;;;;;;3.97;1.40;;;;;;;11.53;100.00;100927.03;2087889;28;20037;-78
2023/03/06 00:35:05;;;;;;;7.65;1.48;;;;;;;11.50;100.00;100924.34;2093899;28;20052;-77
2023/03/06 00:36:27;;;;;;;;;;;;;;;11.43;100.00;100921.56;2088444;28;20048;-77
2023/03/06 00:37:50;;;;;;;3.72;1.35;;;;;;;11.41;100.00;100928.63;2085163;28;19929;-78
2023/03/06 00:39:12;;;;;;;5.65;1.50;;;;;;;11.40;100.00;100929.47;2077408;28;20111;-78
2023/03/06 00:40:33;;;;;;;4.97;1.40;;;;;;;11.36;100.00;100925.00;2082633;28;20045;-80
2023/03/06 00:41:55;;;;;;;7.30;1.77;;;;;;;11.33;100.00;100932.88;2076882;28;20069;-78
2023/03/06 00:43:21;;;;;;;4.53;1.10;;;;;;;11.30;100.00;100938.13;2084040;28;20501;-77
2023/03/06 00:44:43;;;;;;;4.80;1.45;;;;;;;11.28;100.00;100931.94;2094923;28;20571;-77
2023/03/06 00:46:05;;;;;;;4.47;1.65;;;;;;;11.27;100.00;100936.34;2089320;28;20043;-78
2023/03/06 00:47:28;;;;;;;3.90;1.30;;;;;;;11.30;100.00;100932.84;2078619;28;20057;-78
2023/03/06 00:48:49;;;;;;;4.22;1.35;;;;;;;11.32;100.00;100933.75;2083803;28;20044;-78
2023/03/06 00:50:12;;;;;;;5.60;1.40;;;;;;;11.33;100.00;100940.81;2095037;28;20048;-76
2023/03/06 00:51:34;;;;;;;5.82;2.08;;;;;;;11.34;100.00;100938.22;2089498;28;20423;-78
2023/03/06 00:52:56;;;;;;;4.65;1.95;;;;;;;11.36;100.00;100947.03;2094986;28;20041;-78
2023/03/06 00:54:20;;;;;;;6.70;1.98;;;;;;;11.37;100.00;100953.22;2081180;28;20524;-78
2023/03/06 00:55:43;;;;;;;4.03;1.85;;;;;;;11.37;100.00;100942.63;2092073;28;20060;-78
2023/03/06 00:57:06;;;;;;;3.63;1.42;;;;;;;11.37;100.00;100942.63;2083736;28;20057;-77
2023/03/06 00:58:29;;;;;;;5.97;2.10;;;;;;;11.35;100.00;100939.09;2092361;28;20079;-78
2023/03/06 00:59:52;;;;;;;5.60;3.13;;;;;;;11.33;100.00;100935.53;2095137;28;20127;-78
2023/03/06 01:01:16;;;;;;;6.70;2.10;;;;;;;11.29;100.00;100939.00;2097524;28;20479;-79
2023/03/06 01:02:38;;;;;;;8.20;4.72;;;;;;;11.26;100.00;100931.91;2094577;28;20135;-78
2023/03/06 01:04:00;;;;;;;3.97;2.10;;;;;;;11.27;100.00;100932.81;2086799;28;20041;-78
2023/03/06 01:05:23;;;;;;;5.40;1.80;;;;;;;11.31;100.00;100931.97;2092286;28;20044;-78
2023/03/06 01:06:44;;;;;;;3.60;1.70;;;;;;;11.34;100.00;100929.38;2086921;28;20045;-79
2023/03/06 01:08:07;;;;;;;3.00;1.42;;;;;;;11.35;100.00;100923.25;2092008;28;20036;-79
2023/03/06 01:09:28;;;;;;;3.33;1.50;;;;;;;11.37;100.00;100926.78;2086336;28;20134;-77
2023/03/06 01:10:51;;;;;;;4.30;1.30;;;;;;;11.34;100.00;100930.28;2086393;28;20049;-78
2023/03/06 01:12:12;;;;;;;4.82;1.40;;;;;;;11.29;100.00;100941.66;2092486;28;20040;-78
2023/03/06 01:13:36;;;;;;;4.95;1.50;;;;;;;11.23;100.00;100930.97;2086651;28;20059;-79
2023/03/06 01:14:57;;;;;;;3.00;1.63;;;;;;;11.18;100.00;100945.00;2084448;28;20490;-77
2023/03/06 01:16:20;;;;;;;4.93;1.70;;;;;;;11.13;100.00;100953.72;2091728;28;20056;-78
2023/03/06 01:17:44;;;;;;;2.83;1.70;;;;;;;11.07;100.00;100948.34;2088697;28;20516;-78
2023/03/06 01:19:06;;;;;;;3.38;1.50;;;;;;;11.03;100.00;100952.66;2092422;28;20105;-77
2023/03/06 01:20:28;;;;;;;5.03;1.45;;;;;;;10.98;100.00;100951.72;2089042;28;20447;-78
2023/03/06 01:21:50;;;;;;;3.53;1.33;;;;;;;10.97;100.00;100952.56;2083816;28;20106;-78
2023/03/06 01:23:12;;;;;;;6.03;1.55;;;;;;;10.97;100.00;100954.31;2091993;28;20060;-78
2023/03/06 01:24:33;;;;;;;4.35;1.70;;;;;;;10.96;100.00;100955.22;2086213;28;20045;-78
2023/03/06 01:25:56;;;;;;;7.60;1.40;;;;;;;10.90;100.00;100947.16;2083506;28;20091;-77
2023/03/06 01:27:17;;;;;;;5.40;1.25;;;;;;;10.83;100.00;100940.88;2092018;28;20263;-78
2023/03/06 01:28:41;;;;;;;3.50;1.17;;;;;;;10.78;100.00;100945.19;2094550;28;20048;-77
2023/03/06 01:30:03;;;;;;;3.55;1.40;;;;;;;10.74;100.00;100938.09;2086267;28;20041;-77
2023/03/06 01:31:25;;;;;;;;;;;;;;;10.63;100.00;100940.50;2092765;28;20126;-77
2023/03/06 01:32:47;;;;;;;3.60;1.38;;;;;;;10.59;100.00;100937.81;2094053;28;20354;-77
2023/03/06 01:34:09;;;;;;;1.55;1.02;;;;;;;10.60;100.00;100936.94;2086366;28;20044;-78
2023/03/06 01:35:31;;;;;;;5.03;1.70;;;;;;;10.64;100.00;100946.69;2092194;28;20044;-78
2023/03/06 01:36:53;;;;;;;3.13;1.02;;;;;;;10.65;100.00;100936.16;2086428;28;20044;-78
2023/03/06 01:38:15;;;;;;;5.18;1.35;;;;;;;10.65;100.00;100930.00;2094388;28;20475;-78
2023/03/06 01:39:36;;;;;;;3.03;1.20;;;;;;;10.64;100.00;100930.84;2086608;28;20551;-78
2023/03/06 01:40:58;;;;;;;5.50;1.23;;;;;;;10.62;100.00;100932.59;2091725;28;20570;-78
2023/03/06 01:42:20;;;;;;;5.32;1.52;;;;;;;10.60;100.00;100934.31;2086569;28;20057;-78
2023/03/06 01:43:46;;;;;;;4.10;1.55;;;;;;;10.60;100.00;100940.47;2092154;28;20497;-78
2023/03/06 01:45:47;;;;;;;2.90;1.42;;;;;;;10.59;100.00;100935.16;2094852;28;20468;-78
2023/03/06 01:47:09;;;;;;;4.07;1.40;;;;;;;10.58;100.00;100930.75;2088827;28;20094;-79
2023/03/06 01:48:30;;;;;;;4.90;1.65;;;;;;;10.60;100.00;100921.09;2091993;28;20052;-77
2023/03/06 01:49:56;;;;;;;5.85;2.42;;;;;;;10.66;100.00;100923.84;2086484;28;20041;-77
2023/03/06 01:51:18;;;;;;;4.72;1.80;;;;;;;10.70;100.00;100925.69;2086479;28;20543;-77
2023/03/06 01:52:45;;;;;;;4.25;2.08;;;;;;;10.76;100.00;100931.94;2083442;28;20094;-76
2023/03/06 01:54:11;;;;;;;6.63;2.13;;;;;;;10.82;100.00;100935.59;2095054;28;20037;-77
2023/03/06 01:55:35;;;;;;;5.15;1.73;;;;;;;10.85;100.00;100931.22;2094824;28;20114;-77
2023/03/06 01:57:03;;;;;;;5.97;2.10;;;;;;;10.92;100.00;100934.88;2086476;28;20370;-77
2023/03/06 01:58:24;;;;;;;4.60;1.77;;;;;;;10.94;100.00;100938.44;2086252;28;20630;-77
2023/03/06 01:59:56;;;;;;;5.38;1.80;;;;;;;10.99;100.00;100939.38;2086215;28;20069;-77
2023/03/06 02:01:20;;;;;;;5.15;2.10;;;;;;;10.95;100.00;100930.53;2095488;28;20055;-77
2023/03/06 02:02:45;;;;;;;7.47;2.10;;;;;;;10.93;100.00;100945.47;2078207;28;20049;-77
2023/03/06 02:04:09;;;;;;;4.65;2.40;;;;;;;10.93;100.00;100949.84;2084324;28;20036;-77
2023/03/06 02:05:30;;;;;;;7.63;2.58;;;;;;;10.95;100.00;100954.31;2094424;28;20488;-78
2023/03/06 02:06:53;;;;;;;6.60;2.75;;;;;;;10.98;100.00;100953.47;2088886;28;20048;-77
2023/03/06 02:08:18;;;;;;;7.65;3.30;;;;;;;11.01;100.00;100959.69;2086023;28;20385;-77
2023/03/06 02:09:40;;;;;;;10.10;3.65;;;;;;;11.00;100.00;100952.63;2086333;28;20045;-78
2023/03/06 02:11:08;;;;;;;8.70;2.85;;;;;;;11.01;100.00;100970.25;2086734;28;20049;-78
2023/03/06 02:12:31;;;;;;;6.53;3.15;;;;;;;10.97;100.00;100971.06;2086399;28;20110;-78
2023/03/06 02:13:54;;;;;;;4.28;2.10;;;;;;;11.00;100.00;100965.84;2086268;28;20048;-78
2023/03/06 02:15:20;;;;;;;5.32;2.30;;;;;;;11.05;100.00;100972.09;2088982;28;20649;-78
2023/03/06 02:16:43;;;;;;;7.05;2.58;;;;;;;11.07;100.00;100970.38;2086379;28;20076;-77
2023/03/06 02:18:04;;;;;;;3.95;2.45;;;;;;;11.11;100.00;100974.81;2094487;28;20056;-78
2023/03/06 02:19:37;;;;;;;6.70;2.60;;;;;;;11.16;100.00;100970.50;2080610;28;20088;-78
2023/03/06 02:21:02;;;;;;;9.23;2.20;;;;;;;11.16;100.00;100967.84;2086600;28;20041;-78
2023/03/06 02:22:30;;;;;;;6.53;2.80;;;;;;;11.14;100.00;100974.00;2077953;28;20148;-78
2023/03/06 02:24:05;;;;;;;4.95;3.78;;;;;;;11.08;100.00;100972.16;2085326;28;20040;-79
2023/03/06 02:25:40;;;;;;;10.48;4.32;;;;;;;11.03;100.00;100975.53;2088130;28;20049;-78
2023/03/06 02:27:04;;;;;;;6.90;3.00;;;;;;;11.02;100.00;100972.03;2079174;28;20045;-79
2023/03/06 02:28:27;;;;;;;7.63;3.00;;;;;;;11.05;100.00;100976.47;2084001;28;20489;-78
2023/03/06 02:29:49;;;;;;;7.15;2.25;;;;;;;11.02;100.00;100985.25;2078117;28;20063;-77
2023/03/06 02:31:22;;;;;;;4.78;1.63;;;;;;;10.99;100.00;100982.53;2083375;28;20625;-78
2023/03/06 02:32:43;;;;;;;3.30;1.95;;;;;;;10.95;100.00;100975.44;2087061;28;20097;-78
2023/03/06 02:34:28;;;;;;;4.40;2.00;;;;;;;10.95;100.00;100985.13;2085745;28;20067;-78
2023/03/06 02:35:53;;;;;;;5.40;1.77;;;;;;;10.88;100.00;100976.19;2088913;28;20045;-79
2023/03/06 02:37:14;;;;;;;4.13;1.30;;;;;;;10.84;100.00;100981.38;2086153;28;20053;-77
2023/03/06 02:38:41;;;;;;;5.75;2.25;;;;;;;10.81;100.00;100986.63;2085905;28;20118;-78
2023/03/06 02:40:12;;;;;;;5.43;1.50;;;;;;;10.73;100.00;100983.84;2086566;28;20060;-78
2023/03/06 02:41:35;;;;;;;4.55;1.73;;;;;;;10.68;100.00;100994.31;2078797;28;20525;-77
2023/03/06 02:42:59;;;;;;;6.13;1.58;;;;;;;10.66;100.00;100993.38;2083244;28;20041;-77
2023/03/06 02:44:21;;;;;;;5.82;2.15;;;;;;;10.64;100.00;100997.75;2078091;28;20084;-78
2023/03/06 02:45:44;;;;;;;;;;;;;;;10.61;100.00;100997.69;2083621;28;20049;-77
2023/03/06 02:47:06;;;;;;;60.72;34.03;;;;;;;10.63;100.00;100993.31;2085969;28;19920;-78
2023/03/06 02:48:29;;;;;;;9.73;5.93;;;;;;;10.61;100.00;100997.69;2080532;28;20069;-78
2023/03/06 02:49:50;;;;;;;8.30;4.97;;;;;;;10.52;100.00;100999.25;2083184;28;20102;-78
2023/03/06 02:51:13;;;;;;;9.27;6.60;;;;;;;10.45;100.00;101003.53;2085967;28;20063;-78
2023/03/06 02:52:34;;;;;;;8.57;5.50;;;;;;;10.45;100.00;100992.06;2077627;28;20684;-77
2023/03/06 02:53:57;;;;;;;4.70;1.90;;;;;;;10.46;100.00;100997.38;2091326;28;20053;-77
2023/03/06 02:55:20;;;;;;;3.80;1.77;;;;;;;10.48;100.00;100994.78;2080138;28;20088;-78
2023/03/06 02:56:42;;;;;;;5.47;1.80;;;;;;;10.50;100.00;101006.28;2083405;28;20041;-78
2023/03/06 02:58:06;;;;;;;4.00;1.80;;;;;;;10.50;100.00;100996.59;2085488;28;20465;-77
2023/03/06 02:59:27;;;;;;;5.43;1.80;;;;;;;10.50;100.00;100993.09;2085836;28;20456;-78
2023/03/06 03:00:50;;;;;;;6.50;1.98;;;;;;;10.49;100.00;100994.81;2077673;28;20041;-78
2023/03/06 03:02:13;;;;;;;3.63;1.70;;;;;;;10.50;100.00;101001.00;2085320;28;20691;-79
2023/03/06 03:03:35;;;;;;;6.28;2.22;;;;;;;10.49;100.00;100997.47;2080234;28;20069;-78
2023/03/06 03:04:56;;;;;;;4.80;1.65;;;;;;;10.51;100.00;100995.72;2083117;28;20109;-78
2023/03/06 03:06:19;;;;;;;6.38;2.47;;;;;;;10.51;100.00;100993.09;2093324;28;20570;-79
2023/03/06 03:07:40;;;;;;;5.75;2.15;;;;;;;10.40;100.00;101002.56;2088331;28;20049;-78
2023/03/06 03:09:03;;;;;;;3.85;1.80;;;;;;;10.22;100.00;101008.34;2077087;28;20041;-79
2023/03/06 03:10:26;;;;;;;5.13;2.88;;;;;;;10.07;100.00;100999.19;2095140;28;20055;-78
2023/03/06 03:11:48;;;;;;;9.25;3.78;;;;;;;10.00;100.00;101004.31;2080099;28;20033;-78
2023/03/06 03:13:11;;;;;;;6.78;3.40;;;;;;;10.00;100.00;101003.44;2083050;28;20091;-77
2023/03/06 03:14:34;;;;;;;5.28;2.38;;;;;;;10.00;100.00;101014.88;2077377;28;20076;-77
2023/03/06 03:15:58;;;;;;;5.90;1.92;;;;;;;9.98;100.00;101010.41;2074779;28;20042;-78
2023/03/06 03:17:20;;;;;;;7.90;3.67;;;;;;;9.97;100.00;101012.19;2091080;28;20052;-77
2023/03/06 03:18:43;;;;;;;5.07;2.90;;;;;;;10.01;100.00;101015.75;2080156;28;20137;-78
2023/03/06 03:20:09;;;;;;;4.07;2.05;;;;;;;10.06;100.00;101024.66;2075380;28;20080;-78
2023/03/06 03:21:31;;;;;;;5.03;2.70;;;;;;;10.09;100.00;101026.50;2083852;28;20136;-77
2023/03/06 03:22:54;;;;;;;4.78;2.30;;;;;;;10.14;100.00;101022.19;2085281;28;20820;-77
2023/03/06 03:24:16;;;;;;;5.40;1.88;;;;;;;10.16;100.00;101023.13;2077788;28;20045;-78
2023/03/06 03:25:39;;;;;;;6.90;3.03;;;;;;;10.18;100.00;101031.97;2074696;28;20050;-77
2023/03/06 03:27:03;;;;;;;10.88;4.82;;;;;;;10.24;100.00;101029.50;2085813;28;20401;-78
2023/03/06 03:28:25;;;;;;;5.53;2.10;;;;;;;10.22;100.00;101016.25;2080031;28;20120;-78
2023/03/06 03:29:48;;;;;;;4.35;1.67;;;;;;;10.23;100.00;101017.16;2091109;28;20118;-78
2023/03/06 03:31:11;;;;;;;6.03;1.77;;;;;;;10.23;100.00;101010.13;2080006;28;20046;-77
2023/03/06 03:32:33;;;;;;;6.25;1.83;;;;;;;10.23;100.00;101018.06;2085819;28;20176;-78
2023/03/06 03:33:54;;;;;;;4.68;1.48;;;;;;;10.22;100.00;101013.63;2088390;28;20501;-77
2023/03/06 03:35:18;;;;;;;4.20;1.83;;;;;;;10.21;100.00;101017.13;2077464;28;20100;-77
2023/03/06 03:36:40;;;;;;;5.60;1.42;;;;;;;10.20;100.00;101023.25;2074955;28;20049;-79
2023/03/06 03:38:05;;;;;;;3.25;1.42;;;;;;;10.17;100.00;101024.94;2083181;28;20504;-78
2023/03/06 03:39:26;;;;;;;4.60;1.63;;;;;;;10.16;100.00;101033.69;2077451;28;20038;-78
2023/03/06 03:40:48;;;;;;;2.85;1.77;;;;;;;10.14;100.00;101033.63;2082551;28;20055;-79
2023/03/06 03:42:11;;;;;;;3.97;2.20;;;;;;;10.14;100.00;101038.91;2077376;28;20042;-78
2023/03/06 03:43:33;;;;;;;5.47;2.40;;;;;;;10.15;100.00;101034.53;2085491;28;20080;-79
2023/03/06 03:44:56;;;;;;;5.65;2.40;;;;;;;10.16;100.00;101036.31;2077429;28;20410;-77
2023/03/06 03:46:19;;;;;;;4.72;2.35;;;;;;;10.18;100.00;101039.88;2085693;28;20109;-77
2023/03/06 03:47:41;;;;;;;4.88;1.85;;;;;;;10.20;100.00;101041.72;2080025;28;20072;-79
2023/03/06 03:49:03;;;;;;;5.32;1.88;;;;;;;10.21;100.00;101046.13;2074709;28;20053;-78
2023/03/06 03:50:26;;;;;;;8.20;2.13;;;;;;;10.22;100.00;101044.41;2074516;28;20136;-78
2023/03/06 03:51:48;;;;;;;6.35;1.65;;;;;;;10.23;100.00;101052.34;2083075;28;20047;-79
2023/03/06 03:53:10;;;;;;;4.30;1.70;;;;;;;10.24;100.00;101053.25;2077288;28;20053;-79
2023/03/06 03:54:33;;;;;;;5.30;1.77;;;;;;;10.24;100.00;101053.25;2085562;28;20057;-79
2023/03/06 03:55:55;;;;;;;6.75;2.22;;;;;;;10.26;100.00;101059.41;2077468;28;20103;-78
2023/03/06 03:57:18;;;;;;;4.97;1.35;;;;;;;10.24;100.00;101038.28;2077339;28;20144;-79
2023/03/06 03:58:45;;;;;;;5.93;1.80;;;;;;;10.23;100.00;101043.53;2092404;28;20484;-79
2023/03/06 04:00:10;;;;;;;5.57;1.63;;;;;;;10.20;100.00;101040.81;2080038;28;20053;-79
2023/03/06 04:01:48;;;;;;;5.20;2.22;;;;;;;10.16;100.00;101039.84;2082716;28;20048;-79
2023/03/06 04:03:09;;;;;;;4.72;1.75;;;;;;;10.15;100.00;101035.41;2074814;28;20148;-79
2023/03/06 04:04:35;;;;;;;6.03;1.80;;;;;;;10.16;100.00;101031.94;2075512;28;20080;-79
2023/03/06 04:05:58;;;;;;;5.53;1.60;;;;;;;10.18;100.00;101032.88;2077654;28;20227;-79
2023/03/06 04:07:21;;;;;;;5.03;1.92;;;;;;;10.17;100.00;101033.75;2077526;28;20056;-79
2023/03/06 04:08:43;;;;;;;3.38;1.38;;;;;;;10.21;100.00;101029.41;2074974;28;20057;-79
2023/03/06 04:10:08;;;;;;;3.40;1.63;;;;;;;10.25;100.00;101034.78;2077591;28;20041;-79
2023/03/06 04:11:30;;;;;;;5.90;1.70;;;;;;;10.31;100.00;101031.38;2075000;28;20052;-79
2023/03/06 04:12:53;;;;;;;2.95;1.25;;;;;;;10.33;100.00;101033.19;2082959;28;20105;-79
2023/03/06 04:14:16;;;;;;;2.47;1.35;;;;;;;10.37;100.00;101042.09;2077454;28;20521;-78
2023/03/06 04:15:37;;;;;;;6.60;2.15;;;;;;;10.40;100.00;101044.78;2077218;28;20064;-78
2023/03/06 04:16:59;;;;;;;4.35;1.88;;;;;;;10.37;100.00;101042.94;2085757;28;20545;-78
2023/03/06 04:18:22;;;;;;;5.78;2.20;;;;;;;10.35;100.00;101038.53;2086949;28;20041;-78
2023/03/06 04:19:44;;;;;;;4.75;2.20;;;;;;;10.32;100.00;101033.16;2086940;28;20056;-78
2023/03/06 04:21:07;;;;;;;4.30;1.30;;;;;;;10.33;100.00;101034.94;2079024;28;20038;-79
2023/03/06 04:22:28;;;;;;;3.55;1.45;;;;;;;10.35;100.00;101035.88;2076160;28;20153;-78
2023/03/06 04:23:50;;;;;;;4.93;1.70;;;;;;;10.35;100.00;101031.50;2084044;28;20052;-78
2023/03/06 04:25:13;;;;;;;4.78;1.63;;;;;;;10.35;100.00;101031.50;2087113;28;20557;-79
2023/03/06 04:26:36;;;;;;;4.10;1.50;;;;;;;10.32;100.00;101044.59;2078927;28;20056;-79
2023/03/06 04:27:59;;;;;;;4.97;2.55;;;;;;;10.28;100.00;101050.69;2078805;28;20049;-78
2023/03/06 04:29:21;;;;;;;3.05;1.60;;;;;;;10.24;100.00;101043.56;2076404;28;20061;-78
2023/03/06 04:30:43;;;;;;;3.58;1.73;;;;;;;10.23;100.00;101047.06;2076191;28;20088;-78
2023/03/06 04:32:06;;;;;;;4.65;1.58;;;;;;;10.22;100.00;101049.66;2075694;28;20037;-78
2023/03/06 04:33:27;;;;;;;3.53;1.77;;;;;;;10.27;100.00;101042.72;2076432;28;20042;-79
2023/03/06 04:34:50;;;;;;;3.53;1.58;;;;;;;10.28;100.00;101042.78;2084366;28;20044;-79
2023/03/06 04:36:22;;;;;;;7.38;3.80;;;;;;;10.27;100.00;101048.91;2086540;28;20049;-78
2023/03/06 04:37:46;;;;;;;6.65;4.45;;;;;;;10.24;100.00;101051.47;2088548;28;20037;-78
2023/03/06 04:39:09;;;;;;;10.07;6.82;;;;;;;10.25;100.00;101053.25;2089258;28;20056;-79
2023/03/06 04:40:32;;;;;;;8.23;7.18;;;;;;;10.27;100.00;101048.00;2078449;28;20148;-78
2023/03/06 04:41:54;;;;;;;9.23;7.85;;;;;;;10.28;100.00;101058.59;2081287;28;20575;-79
2023/03/06 04:43:18;;;;;;;3.50;1.60;;;;;;;10.32;100.00;101059.53;2076004;28;20052;-78
2023/03/06 04:44:39;;;;;;;5.80;1.70;;;;;;;10.36;100.00;101057.03;2086943;28;20159;-79
2023/03/06 04:46:02;;;;;;;6.70;2.17;;;;;;;10.41;100.00;101056.22;2078457;28;20140;-78
2023/03/06 04:47:24;;;;;;;5.10;2.00;;;;;;;10.44;100.00;101048.34;2075739;28;20174;-77
2023/03/06 04:48:46;;;;;;;6.82;2.28;;;;;;;10.46;100.00;101058.09;2092290;28;20059;-78
2023/03/06 04:50:09;;;;;;;7.95;3.22;;;;;;;10.47;100.00;101065.16;2089585;28;20051;-78
2023/03/06 04:51:32;;;;;;;7.05;2.30;;;;;;;10.48;100.00;101074.88;2087002;28;20037;-78
2023/03/06 04:52:54;;;;;;;4.35;2.10;;;;;;;10.49;100.00;101076.66;2094675;28;20040;-78
2023/03/06 04:54:16;;;;;;;4.07;2.47;;;;;;;10.51;100.00;101079.28;2088425;28;20052;-78
2023/03/06 04:55:39;;;;;;;5.20;2.85;;;;;;;10.49;100.00;101079.28;2078189;28;20072;-79
2023/03/06 04:57:00;;;;;;;5.63;3.40;;;;;;;10.49;100.00;101089.84;2083739;28;20387;-78
2023/03/06 04:58:24;;;;;;;6.43;3.83;;;;;;;10.49;100.00;101088.94;2086660;28;20048;-78
2023/03/06 04:59:46;;;;;;;6.95;2.55;;;;;;;10.48;100.00;101076.59;2078420;28;20049;-79
2023/03/06 05:01:07;;;;;;;6.80;3.20;;;;;;;10.49;100.00;101071.38;2092125;28;20056;-79
2023/03/06 05:02:30;;;;;;;5.82;2.80;;;;;;;10.50;100.00;101069.63;2085228;28;20063;-79
2023/03/06 05:03:51;;;;;;;6.88;2.92;;;;;;;10.52;100.00;101083.72;2092217;28;20547;-80
2023/03/06 05:05:14;;;;;;;6.63;2.95;;;;;;;10.53;100.00;101085.50;2086706;28;20056;-79
2023/03/06 05:06:35;;;;;;;5.70;2.60;;;;;;;10.55;100.00;101099.63;2086866;28;20057;-79
2023/03/06 05:07:57;;;;;;;11.98;5.18;;;;;;;10.57;100.00;101089.97;2086375;28;20540;-80
2023/03/06 05:09:19;;;;;;;14.82;6.97;;;;;;;10.57;100.00;101085.59;2092590;28;20056;-79
2023/03/06 05:10:41;;;;;;;10.52;6.32;;;;;;;10.57;100.00;101089.97;2097289;28;20055;-80
2023/03/06 05:12:04;;;;;;;13.02;5.45;;;;;;;10.57;100.00;101087.34;2094914;28;20041;-80
2023/03/06 05:13:27;;;;;;;11.07;5.80;;;;;;;10.59;100.00;101091.81;2089475;28;20037;-80
2023/03/06 05:14:50;;;;;;;7.63;3.83;;;;;;;10.59;100.00;101094.44;2094886;28;20075;-79
2023/03/06 05:16:11;;;;;;;14.40;5.85;;;;;;;10.67;100.00;101097.25;2086597;28;20045;-80
2023/03/06 05:17:34;;;;;;;11.18;6.03;;;;;;;10.74;100.00;101084.19;2092265;28;20649;-81
2023/03/06 05:18:57;;;;;;;8.05;3.97;;;;;;;10.88;100.00;101081.84;2095001;28;20041;-80
2023/03/06 05:20:19;;;;;;;6.72;3.42;;;;;;;11.03;100.00;101089.13;2094722;28;20056;-80
2023/03/06 05:21:41;;;;;;;6.13;2.75;;;;;;;11.18;100.00;101094.72;2094885;28;20052;-80
2023/03/06 05:23:03;;;;;;;6.35;2.75;;;;;;;11.30;100.00;101094.94;2094745;28;20420;-80
2023/03/06 05:24:25;;;;;;;8.20;3.40;;;;;;;11.44;100.00;101097.81;2094704;28;20045;-80
2023/03/06 05:25:47;;;;;;;10.30;3.08;;;;;;;11.57;100.00;101108.63;2095051;28;20045;-80
2023/03/06 05:27:10;;;;;;;9.55;3.55;;;;;;;11.70;100.00;101100.91;2094831;28;20052;-79
2023/03/06 05:28:34;;;;;;;11.35;3.53;;;;;;;11.83;100.00;101103.81;2094306;28;20779;-80
2023/03/06 05:29:55;;;;;;;10.77;3.03;;;;;;;11.96;100.00;101110.19;2095041;28;20051;-80
2023/03/06 05:31:18;;;;;;;6.30;3.08;;;;;;;12.11;100.00;101110.41;2094624;28;20508;-80
2023/03/06 05:32:39;;;;;;;8.38;3.20;;;;;;;12.30;100.00;101114.22;2089207;28;20045;-81
2023/03/06 05:34:01;;;;;;;16.50;6.38;;;;;;;12.50;100.00;101111.84;2083955;28;20103;-80
2023/03/06 05:35:24;;;;;;;15.48;7.78;;;;;;;12.74;100.00;101110.38;2083437;28;20044;-81
2023/03/06 05:36:47;;;;;;;8.98;3.95;;;;;;;12.92;100.00;101109.75;2092152;28;20048;-80
2023/03/06 05:38:08;;;;;;;7.05;2.80;;;;;;;13.13;100.00;101103.78;2078543;28;20049;-80
2023/03/06 05:39:30;;;;;;;5.28;1.90;;;;;;;13.33;100.00;101104.00;2097786;28;20495;-81
2023/03/06 05:40:53;;;;;;;5.72;1.90;;;;;;;13.52;100.00;101109.50;2097341;28;20535;-80
2023/03/06 05:42:15;;;;;;;8.70;1.80;;;;;;;13.72;100.00;101116.78;2103377;28;20059;-80
2023/03/06 05:43:39;;;;;;;4.30;1.52;;;;;;;13.89;100.00;101120.44;2097290;28;20145;-80
2023/03/06 05:45:01;;;;;;;4.40;1.65;;;;;;;14.04;100.00;101117.00;2094260;28;20044;-81
2023/03/06 05:46:23;;;;;;;5.60;1.70;;;;;;;14.17;100.00;101113.56;2094904;28;20044;-81
2023/03/06 05:47:46;;;;;;;5.25;1.50;;;;;;;14.28;100.00;101122.47;2097088;28;20048;-81
2023/03/06 05:49:08;;;;;;;3.30;1.40;;;;;;;14.43;100.00;101124.38;2103051;28;20496;-80
2023/03/06 05:50:33;;;;;;;6.28;1.50;;;;;;;14.55;100.00;101119.13;2088672;28;20135;-81
2023/03/06 05:51:54;;;;;;;3.65;1.65;;;;;;;14.66;100.00;101118.28;2094959;28;20153;-81
2023/03/06 05:53:16;;;;;;;5.95;2.20;;;;;;;14.78;100.00;101128.06;2094587;28;20527;-82
2023/03/06 05:54:39;;;;;;;7.30;1.77;;;;;;;14.89;100.00;101133.47;2086451;28;20049;-81
2023/03/06 05:56:03;;;;;;;5.80;2.67;;;;;;;15.00;100.00;101134.38;2091883;28;20427;-81
2023/03/06 05:57:24;;;;;;;3.92;1.50;;;;;;;15.12;100.00;101145.94;2094536;28;20052;-81
2023/03/06 05:58:49;;;;;;;5.10;1.48;;;;;;;15.24;100.00;101141.53;2094725;28;20416;-81
2023/03/06 06:00:12;;;;;;;4.55;1.50;;;;;;;15.34;100.00;101140.69;2094787;28;20047;-78
2023/03/06 06:01:35;;;;;;;5.60;1.50;;;;;;;15.42;100.00;101145.16;2096492;28;20122;-80
2023/03/06 06:03:00;;;;;;;4.78;2.38;;;;;;;15.54;100.00;101146.97;2094512;28;20045;-80
2023/03/06 06:04:23;;;;;;;5.72;2.03;;;;;;;15.60;100.00;101149.63;2088526;28;20048;-80
2023/03/06 06:05:45;;;;;;;6.88;2.40;;;;;;;15.67;100.00;101148.75;2086678;28;20567;-80
2023/03/06 06:07:07;;;;;;;6.93;2.72;;;;;;;15.76;100.00;101148.75;2086487;28;20389;-80
2023/03/06 06:08:30;;;;;;;6.88;3.55;;;;;;;15.87;100.00;101148.75;2086096;28;20044;-80
2023/03/06 06:09:53;;;;;;;3.40;1.45;;;;;;;15.97;100.00;101153.19;2086514;28;20111;-80
2023/03/06 06:11:17;;;;;;;3.92;1.50;;;;;;;16.05;100.00;101150.53;2094328;28;20516;-80
2023/03/06 06:12:39;;;;;;;4.28;1.77;;;;;;;16.13;100.00;101156.75;2088728;28;20497;-81
2023/03/06 06:14:02;;;;;;;5.70;1.63;;;;;;;16.24;100.00;101160.28;2086351;28;20041;-80
2023/03/06 06:15:26;;;;;;;4.53;1.90;;;;;;;16.32;100.00;101158.50;2086547;28;20546;-80
2023/03/06 06:16:48;;;;;;;3.47;1.30;;;;;;;16.42;99.70;101148.69;2086371;28;20132;-80
2023/03/06 06:18:10;;;;;;;4.55;1.75;;;;;;;16.50;98.86;101153.13;2086186;28;20057;-80
2023/03/06 06:19:32;;;;;;;5.00;1.70;;;;;;;16.60;99.19;101154.03;2086258;28;20485;-80
2023/03/06 06:20:55;;;;;;;4.85;1.85;;;;;;;16.67;96.05;101148.66;2086033;28;20048;-80
2023/03/06 06:22:17;;;;;;;4.20;2.00;;;;;;;16.71;95.07;101158.44;2086345;28;20049;-80